sensor_id;sensor_type;location;lat;lon;timestamp;temperature;humidity
51739;DHT22;37815;52.692;6.226;2023-05-13T00:02:36;17.40;96.10
51739;DHT22;37815;52.692;6.226;2023-05-13T00:07:37;17.40;96.10
51739;DHT22;37815;52.692;6.226;2023-05-13T00:12:37;17.40;96.10
51739;DHT22;37815;52.692;6.226;2023-05-13T00:17:38;17.30;96.10
51739;DHT22;37815;52.692;6.226;2023-05-13T00:22:39;17.30;96.10
51739;DHT22;37815;52.692;6.226;2023-05-13T00:27:39;17.30;96.10
51739;DHT22;37815;52.692;6.226;2023-05-13T00:32:40;17.20;96.00
51739;DHT22;37815;52.692;6.226;2023-05-13T00:37:40;17.20;96.00
51739;DHT22;37815;52.692;6.226;2023-05-13T00:42:44;17.20;96.00
51739;DHT22;37815;52.692;6.226;2023-05-13T00:47:45;17.10;96.00
51739;DHT22;37815;52.692;6.226;2023-05-13T00:52:47;17.10;96.00
51739;DHT22;37815;52.692;6.226;2023-05-13T00:57:49;17.10;96.00
51739;DHT22;37815;52.692;6.226;2023-05-13T01:02:52;17.00;96.00
51739;DHT22;37815;52.692;6.226;2023-05-13T01:13:23;17.00;96.00
51739;DHT22;37815;52.692;6.226;2023-05-13T01:18:28;16.90;96.00
51739;DHT22;37815;52.692;6.226;2023-05-13T01:23:30;16.90;96.00
51739;DHT22;37815;52.692;6.226;2023-05-13T01:28:31;16.90;96.00
51739;DHT22;37815;52.692;6.226;2023-05-13T01:33:32;16.90;96.00
51739;DHT22;37815;52.692;6.226;2023-05-13T01:38:34;16.80;96.10
51739;DHT22;37815;52.692;6.226;2023-05-13T01:43:36;16.80;96.00
51739;DHT22;37815;52.692;6.226;2023-05-13T01:48:36;16.80;96.10
51739;DHT22;37815;52.692;6.226;2023-05-13T01:53:37;16.80;96.10
51739;DHT22;37815;52.692;6.226;2023-05-13T01:58:37;16.70;96.00
51739;DHT22;37815;52.692;6.226;2023-05-13T02:03:38;16.70;96.10
51739;DHT22;37815;52.692;6.226;2023-05-13T02:08:38;16.70;96.10
51739;DHT22;37815;52.692;6.226;2023-05-13T02:13:39;16.70;96.10
51739;DHT22;37815;52.692;6.226;2023-05-13T02:18:40;16.60;96.10
51739;DHT22;37815;52.692;6.226;2023-05-13T02:23:40;16.60;96.10
51739;DHT22;37815;52.692;6.226;2023-05-13T02:28:41;16.50;96.10
51739;DHT22;37815;52.692;6.226;2023-05-13T02:33:41;16.50;96.10
51739;DHT22;37815;52.692;6.226;2023-05-13T02:38:42;16.40;96.10
51739;DHT22;37815;52.692;6.226;2023-05-13T02:43:42;16.50;96.10
51739;DHT22;37815;52.692;6.226;2023-05-13T02:48:43;16.40;96.10
51739;DHT22;37815;52.692;6.226;2023-05-13T02:53:44;16.30;96.10
51739;DHT22;37815;52.692;6.226;2023-05-13T02:58:44;16.40;96.20
51739;DHT22;37815;52.692;6.226;2023-05-13T03:03:45;16.30;96.20
51739;DHT22;37815;52.692;6.226;2023-05-13T03:08:45;16.30;96.20
51739;DHT22;37815;52.692;6.226;2023-05-13T03:13:46;16.30;96.20
51739;DHT22;37815;52.692;6.226;2023-05-13T03:18:46;16.30;96.20
51739;DHT22;37815;52.692;6.226;2023-05-13T03:23:47;16.20;96.20
51739;DHT22;37815;52.692;6.226;2023-05-13T03:28:48;16.20;96.20
51739;DHT22;37815;52.692;6.226;2023-05-13T03:33:48;16.20;96.20
51739;DHT22;37815;52.692;6.226;2023-05-13T03:38:49;16.20;96.20
51739;DHT22;37815;52.692;6.226;2023-05-13T03:43:49;16.20;96.20
51739;DHT22;37815;52.692;6.226;2023-05-13T03:48:50;16.10;96.20
51739;DHT22;37815;52.692;6.226;2023-05-13T03:53:51;16.10;96.20
51739;DHT22;37815;52.692;6.226;2023-05-13T03:58:51;16.10;96.30
51739;DHT22;37815;52.692;6.226;2023-05-13T04:03:52;16.00;96.20
51739;DHT22;37815;52.692;6.226;2023-05-13T04:08:53;16.00;96.30
51739;DHT22;37815;52.692;6.226;2023-05-13T04:13:53;16.00;96.30
51739;DHT22;37815;52.692;6.226;2023-05-13T04:18:54;16.10;96.30
51739;DHT22;37815;52.692;6.226;2023-05-13T04:23:55;16.00;96.30
51739;DHT22;37815;52.692;6.226;2023-05-13T04:28:58;15.90;96.30
51739;DHT22;37815;52.692;6.226;2023-05-13T04:33:59;15.90;96.30
51739;DHT22;37815;52.692;6.226;2023-05-13T04:38:59;15.90;96.30
51739;DHT22;37815;52.692;6.226;2023-05-13T04:44:00;15.90;96.30
51739;DHT22;37815;52.692;6.226;2023-05-13T04:49:08;15.90;96.30
51739;DHT22;37815;52.692;6.226;2023-05-13T04:54:08;15.90;96.30
51739;DHT22;37815;52.692;6.226;2023-05-13T04:59:09;15.90;96.30
51739;DHT22;37815;52.692;6.226;2023-05-13T05:04:10;15.80;96.20
51739;DHT22;37815;52.692;6.226;2023-05-13T05:09:11;15.80;96.20
51739;DHT22;37815;52.692;6.226;2023-05-13T05:14:12;15.90;96.20
51739;DHT22;37815;52.692;6.226;2023-05-13T05:19:12;15.90;96.20
51739;DHT22;37815;52.692;6.226;2023-05-13T05:24:13;15.80;96.20
51739;DHT22;37815;52.692;6.226;2023-05-13T05:29:13;15.70;96.20
51739;DHT22;37815;52.692;6.226;2023-05-13T05:34:14;15.80;96.20
51739;DHT22;37815;52.692;6.226;2023-05-13T05:39:15;15.80;96.20
51739;DHT22;37815;52.692;6.226;2023-05-13T05:44:15;15.80;96.20
51739;DHT22;37815;52.692;6.226;2023-05-13T05:49:16;15.80;96.20
51739;DHT22;37815;52.692;6.226;2023-05-13T05:54:16;15.80;96.20
51739;DHT22;37815;52.692;6.226;2023-05-13T05:59:17;15.80;96.20
51739;DHT22;37815;52.692;6.226;2023-05-13T06:04:21;15.80;96.20
51739;DHT22;37815;52.692;6.226;2023-05-13T06:09:22;15.80;96.20
51739;DHT22;37815;52.692;6.226;2023-05-13T06:14:22;15.80;96.20
51739;DHT22;37815;52.692;6.226;2023-05-13T06:19:23;15.80;96.30
51739;DHT22;37815;52.692;6.226;2023-05-13T06:24:23;15.80;96.30
51739;DHT22;37815;52.692;6.226;2023-05-13T06:29:24;15.80;96.30
51739;DHT22;37815;52.692;6.226;2023-05-13T06:34:25;15.80;96.30
51739;DHT22;37815;52.692;6.226;2023-05-13T06:39:25;15.80;96.30
51739;DHT22;37815;52.692;6.226;2023-05-13T06:44:26;15.80;96.30
51739;DHT22;37815;52.692;6.226;2023-05-13T06:49:26;15.80;96.30
51739;DHT22;37815;52.692;6.226;2023-05-13T06:54:27;15.80;96.30
51739;DHT22;37815;52.692;6.226;2023-05-13T06:59:28;15.80;96.30
51739;DHT22;37815;52.692;6.226;2023-05-13T07:04:29;15.90;96.30
51739;DHT22;37815;52.692;6.226;2023-05-13T07:09:30;15.90;96.30
51739;DHT22;37815;52.692;6.226;2023-05-13T07:14:30;15.90;96.30
51739;DHT22;37815;52.692;6.226;2023-05-13T07:19:31;16.00;96.30
51739;DHT22;37815;52.692;6.226;2023-05-13T07:24:31;16.00;96.30
51739;DHT22;37815;52.692;6.226;2023-05-13T07:29:32;16.00;96.20
51739;DHT22;37815;52.692;6.226;2023-05-13T07:34:33;16.00;96.20
51739;DHT22;37815;52.692;6.226;2023-05-13T07:39:33;16.10;96.30
51739;DHT22;37815;52.692;6.226;2023-05-13T07:44:34;16.10;96.30
51739;DHT22;37815;52.692;6.226;2023-05-13T07:49:35;16.10;96.30
51739;DHT22;37815;52.692;6.226;2023-05-13T07:54:35;16.10;96.30
51739;DHT22;37815;52.692;6.226;2023-05-13T07:59:36;16.10;96.40
51739;DHT22;37815;52.692;6.226;2023-05-13T08:04:37;16.20;96.40
51739;DHT22;37815;52.692;6.226;2023-05-13T08:09:37;16.20;96.40
51739;DHT22;37815;52.692;6.226;2023-05-13T08:14:38;16.20;96.50
51739;DHT22;37815;52.692;6.226;2023-05-13T08:19:39;16.20;96.30
51739;DHT22;37815;52.692;6.226;2023-05-13T08:24:40;16.40;96.00
51739;DHT22;37815;52.692;6.226;2023-05-13T08:29:42;16.40;95.80
51739;DHT22;37815;52.692;6.226;2023-05-13T08:34:42;16.50;95.90
51739;DHT22;37815;52.692;6.226;2023-05-13T08:39:43;16.70;95.40
51739;DHT22;37815;52.692;6.226;2023-05-13T08:44:44;16.80;95.10
51739;DHT22;37815;52.692;6.226;2023-05-13T08:49:46;17.00;94.60
51739;DHT22;37815;52.692;6.226;2023-05-13T08:54:48;17.10;93.90
51739;DHT22;37815;52.692;6.226;2023-05-13T08:59:49;17.30;94.00
51739;DHT22;37815;52.692;6.226;2023-05-13T09:04:52;17.40;94.10
51739;DHT22;37815;52.692;6.226;2023-05-13T09:09:54;17.40;94.20
51739;DHT22;37815;52.692;6.226;2023-05-13T09:14:55;17.60;94.30
51739;DHT22;37815;52.692;6.226;2023-05-13T09:19:55;17.80;94.40
51739;DHT22;37815;52.692;6.226;2023-05-13T09:24:56;18.00;93.80
51739;DHT22;37815;52.692;6.226;2023-05-13T09:29:58;18.00;93.40
51739;DHT22;37815;52.692;6.226;2023-05-13T09:35:10;18.20;93.30
51739;DHT22;37815;52.692;6.226;2023-05-13T09:40:15;18.20;93.20
51739;DHT22;37815;52.692;6.226;2023-05-13T09:45:16;18.30;92.70
51739;DHT22;37815;52.692;6.226;2023-05-13T09:50:17;18.40;92.40
51739;DHT22;37815;52.692;6.226;2023-05-13T09:55:18;18.50;91.80
51739;DHT22;37815;52.692;6.226;2023-05-13T10:00:18;18.70;91.70
51739;DHT22;37815;52.692;6.226;2023-05-13T10:05:20;18.80;91.00
51739;DHT22;37815;52.692;6.226;2023-05-13T10:10:21;18.90;89.50
51739;DHT22;37815;52.692;6.226;2023-05-13T10:15:22;19.00;88.30
51739;DHT22;37815;52.692;6.226;2023-05-13T10:20:24;19.10;87.60
51739;DHT22;37815;52.692;6.226;2023-05-13T10:25:26;19.20;86.20
51739;DHT22;37815;52.692;6.226;2023-05-13T10:30:28;19.40;86.90
51739;DHT22;37815;52.692;6.226;2023-05-13T10:35:35;19.10;88.10
51739;DHT22;37815;52.692;6.226;2023-05-13T10:46:05;18.80;90.20
51739;DHT22;37815;52.692;6.226;2023-05-13T10:51:06;18.80;91.00
51739;DHT22;37815;52.692;6.226;2023-05-13T10:56:09;18.70;91.40
51739;DHT22;37815;52.692;6.226;2023-05-13T11:01:29;18.60;91.40
51739;DHT22;37815;52.692;6.226;2023-05-13T11:06:36;18.60;91.30
51739;DHT22;37815;52.692;6.226;2023-05-13T11:11:37;18.70;91.80
51739;DHT22;37815;52.692;6.226;2023-05-13T11:21:50;18.70;92.10
51739;DHT22;37815;52.692;6.226;2023-05-13T11:26:54;18.70;92.10
51739;DHT22;37815;52.692;6.226;2023-05-13T11:31:59;18.80;92.20
51739;DHT22;37815;52.692;6.226;2023-05-13T11:42:09;19.00;92.40
51739;DHT22;37815;52.692;6.226;2023-05-13T11:47:10;18.90;92.40
51739;DHT22;37815;52.692;6.226;2023-05-13T11:52:15;18.90;92.40
51739;DHT22;37815;52.692;6.226;2023-05-13T12:02:20;19.10;92.50
51739;DHT22;37815;52.692;6.226;2023-05-13T12:07:23;19.10;92.50
51739;DHT22;37815;52.692;6.226;2023-05-13T12:12:24;19.10;92.50
51739;DHT22;37815;52.692;6.226;2023-05-13T12:17:26;19.10;92.50
51739;DHT22;37815;52.692;6.226;2023-05-13T12:22:27;19.10;92.60
51739;DHT22;37815;52.692;6.226;2023-05-13T12:27:27;19.20;92.60
51739;DHT22;37815;52.692;6.226;2023-05-13T12:32:28;19.30;92.60
51739;DHT22;37815;52.692;6.226;2023-05-13T12:37:30;19.20;92.60
51739;DHT22;37815;52.692;6.226;2023-05-13T12:42:31;19.40;92.50
51739;DHT22;37815;52.692;6.226;2023-05-13T12:47:49;19.60;92.70
51739;DHT22;37815;52.692;6.226;2023-05-13T12:52:51;19.50;92.70
51739;DHT22;37815;52.692;6.226;2023-05-13T12:58:02;19.50;92.90
51739;DHT22;37815;52.692;6.226;2023-05-13T13:03:03;19.60;92.70
51739;DHT22;37815;52.692;6.226;2023-05-13T13:08:04;19.70;92.70
51739;DHT22;37815;52.692;6.226;2023-05-13T13:13:04;19.80;92.80
51739;DHT22;37815;52.692;6.226;2023-05-13T13:18:05;19.80;92.80
51739;DHT22;37815;52.692;6.226;2023-05-13T13:23:05;20.00;92.70
51739;DHT22;37815;52.692;6.226;2023-05-13T13:28:06;20.10;92.70
51739;DHT22;37815;52.692;6.226;2023-05-13T13:33:07;20.20;92.70
51739;DHT22;37815;52.692;6.226;2023-05-13T13:38:07;20.30;92.80
51739;DHT22;37815;52.692;6.226;2023-05-13T13:43:08;20.30;92.80
51739;DHT22;37815;52.692;6.226;2023-05-13T13:48:09;20.40;92.90
51739;DHT22;37815;52.692;6.226;2023-05-13T13:53:09;20.40;92.80
51739;DHT22;37815;52.692;6.226;2023-05-13T13:58:10;20.60;92.70
51739;DHT22;37815;52.692;6.226;2023-05-13T14:03:10;20.70;92.80
51739;DHT22;37815;52.692;6.226;2023-05-13T14:08:11;20.70;92.70
51739;DHT22;37815;52.692;6.226;2023-05-13T14:13:12;20.80;92.70
51739;DHT22;37815;52.692;6.226;2023-05-13T14:18:12;20.90;92.60
51739;DHT22;37815;52.692;6.226;2023-05-13T14:23:13;21.00;92.50
51739;DHT22;37815;52.692;6.226;2023-05-13T14:28:13;21.10;92.40
51739;DHT22;37815;52.692;6.226;2023-05-13T14:33:16;21.20;92.20
51739;DHT22;37815;52.692;6.226;2023-05-13T14:38:16;21.10;92.20
51739;DHT22;37815;52.692;6.226;2023-05-13T14:43:17;21.20;92.30
51739;DHT22;37815;52.692;6.226;2023-05-13T14:48:18;21.40;92.30
51739;DHT22;37815;52.692;6.226;2023-05-13T14:53:19;21.50;92.30
51739;DHT22;37815;52.692;6.226;2023-05-13T14:58:19;21.70;92.10
51739;DHT22;37815;52.692;6.226;2023-05-13T15:03:20;21.80;91.80
51739;DHT22;37815;52.692;6.226;2023-05-13T15:08:21;21.90;91.90
51739;DHT22;37815;52.692;6.226;2023-05-13T15:13:21;22.00;91.80
51739;DHT22;37815;52.692;6.226;2023-05-13T15:18:24;22.10;91.70
51739;DHT22;37815;52.692;6.226;2023-05-13T15:23:24;22.10;91.50
51739;DHT22;37815;52.692;6.226;2023-05-13T15:28:25;22.10;91.50
51739;DHT22;37815;52.692;6.226;2023-05-13T15:33:25;22.30;91.60
51739;DHT22;37815;52.692;6.226;2023-05-13T15:38:26;22.40;91.40
51739;DHT22;37815;52.692;6.226;2023-05-13T15:43:27;22.40;91.30
51739;DHT22;37815;52.692;6.226;2023-05-13T15:48:30;22.50;91.30
51739;DHT22;37815;52.692;6.226;2023-05-13T15:53:30;22.60;91.40
51739;DHT22;37815;52.692;6.226;2023-05-13T15:58:31;22.70;91.40
51739;DHT22;37815;52.692;6.226;2023-05-13T16:03:31;22.70;91.40
51739;DHT22;37815;52.692;6.226;2023-05-13T16:08:32;22.50;91.40
51739;DHT22;37815;52.692;6.226;2023-05-13T16:13:32;22.50;91.60
51739;DHT22;37815;52.692;6.226;2023-05-13T16:18:33;22.50;91.90
51739;DHT22;37815;52.692;6.226;2023-05-13T16:23:34;22.40;92.00
51739;DHT22;37815;52.692;6.226;2023-05-13T16:28:34;22.30;92.00
51739;DHT22;37815;52.692;6.226;2023-05-13T16:33:35;22.30;92.30
51739;DHT22;37815;52.692;6.226;2023-05-13T16:38:36;22.30;92.50
51739;DHT22;37815;52.692;6.226;2023-05-13T16:43:38;22.20;92.50
51739;DHT22;37815;52.692;6.226;2023-05-13T16:48:38;22.10;92.60
51739;DHT22;37815;52.692;6.226;2023-05-13T16:53:39;22.00;92.80
51739;DHT22;37815;52.692;6.226;2023-05-13T16:58:39;22.10;92.90
51739;DHT22;37815;52.692;6.226;2023-05-13T17:03:40;22.00;93.00
51739;DHT22;37815;52.692;6.226;2023-05-13T17:08:40;22.00;93.10
51739;DHT22;37815;52.692;6.226;2023-05-13T17:13:42;21.80;93.40
51739;DHT22;37815;52.692;6.226;2023-05-13T17:18:42;21.90;93.30
51739;DHT22;37815;52.692;6.226;2023-05-13T17:23:43;21.80;93.40
51739;DHT22;37815;52.692;6.226;2023-05-13T17:28:43;21.80;93.30
51739;DHT22;37815;52.692;6.226;2023-05-13T17:33:44;21.70;93.30
51739;DHT22;37815;52.692;6.226;2023-05-13T17:38:45;21.70;93.40
51739;DHT22;37815;52.692;6.226;2023-05-13T17:43:45;21.60;93.40
51739;DHT22;37815;52.692;6.226;2023-05-13T17:48:46;21.60;93.40
51739;DHT22;37815;52.692;6.226;2023-05-13T17:53:46;21.60;93.40
51739;DHT22;37815;52.692;6.226;2023-05-13T17:58:47;21.50;93.60
51739;DHT22;37815;52.692;6.226;2023-05-13T18:03:48;21.40;93.70
51739;DHT22;37815;52.692;6.226;2023-05-13T18:08:49;21.50;93.80
51739;DHT22;37815;52.692;6.226;2023-05-13T18:13:49;21.30;93.80
51739;DHT22;37815;52.692;6.226;2023-05-13T18:18:50;21.30;93.90
51739;DHT22;37815;52.692;6.226;2023-05-13T18:23:51;21.20;94.00
51739;DHT22;37815;52.692;6.226;2023-05-13T18:28:52;21.20;94.20
51739;DHT22;37815;52.692;6.226;2023-05-13T18:33:52;21.20;94.00
51739;DHT22;37815;52.692;6.226;2023-05-13T18:38:53;21.10;94.40
51739;DHT22;37815;52.692;6.226;2023-05-13T18:43:56;21.10;94.30
51739;DHT22;37815;52.692;6.226;2023-05-13T18:48:56;21.00;94.40
51739;DHT22;37815;52.692;6.226;2023-05-13T18:53:58;20.90;94.50
51739;DHT22;37815;52.692;6.226;2023-05-13T18:58:59;20.90;94.60
51739;DHT22;37815;52.692;6.226;2023-05-13T19:04:00;20.80;94.70
51739;DHT22;37815;52.692;6.226;2023-05-13T19:09:01;20.80;94.80
51739;DHT22;37815;52.692;6.226;2023-05-13T19:14:01;20.70;94.80
51739;DHT22;37815;52.692;6.226;2023-05-13T19:19:02;20.60;94.80
51739;DHT22;37815;52.692;6.226;2023-05-13T19:24:03;20.60;94.90
51739;DHT22;37815;52.692;6.226;2023-05-13T19:29:03;20.50;95.00
51739;DHT22;37815;52.692;6.226;2023-05-13T19:34:04;20.50;95.10
51739;DHT22;37815;52.692;6.226;2023-05-13T19:39:07;20.40;95.10
51739;DHT22;37815;52.692;6.226;2023-05-13T19:44:08;20.30;95.10
51739;DHT22;37815;52.692;6.226;2023-05-13T19:49:08;20.30;95.20
51739;DHT22;37815;52.692;6.226;2023-05-13T19:54:09;20.20;95.40
51739;DHT22;37815;52.692;6.226;2023-05-13T19:59:11;20.30;95.20
51739;DHT22;37815;52.692;6.226;2023-05-13T20:04:11;20.10;95.30
51739;DHT22;37815;52.692;6.226;2023-05-13T20:09:12;20.10;95.30
51739;DHT22;37815;52.692;6.226;2023-05-13T20:14:13;20.10;95.30
51739;DHT22;37815;52.692;6.226;2023-05-13T20:19:16;20.00;95.30
51739;DHT22;37815;52.692;6.226;2023-05-13T20:24:16;19.90;95.30
51739;DHT22;37815;52.692;6.226;2023-05-13T20:29:17;19.90;95.30
51739;DHT22;37815;52.692;6.226;2023-05-13T20:34:17;19.80;95.30
51739;DHT22;37815;52.692;6.226;2023-05-13T20:39:18;19.80;95.40
51739;DHT22;37815;52.692;6.226;2023-05-13T20:44:18;19.70;95.40
51739;DHT22;37815;52.692;6.226;2023-05-13T20:49:19;19.70;95.40
51739;DHT22;37815;52.692;6.226;2023-05-13T20:54:20;19.60;95.40
51739;DHT22;37815;52.692;6.226;2023-05-13T20:59:21;19.60;95.40
51739;DHT22;37815;52.692;6.226;2023-05-13T21:04:22;19.50;95.40
51739;DHT22;37815;52.692;6.226;2023-05-13T21:09:22;19.50;95.50
51739;DHT22;37815;52.692;6.226;2023-05-13T21:14:23;19.40;95.40
51739;DHT22;37815;52.692;6.226;2023-05-13T21:19:23;19.40;95.40
51739;DHT22;37815;52.692;6.226;2023-05-13T21:24:24;19.30;95.40
51739;DHT22;37815;52.692;6.226;2023-05-13T21:29:25;19.30;95.50
51739;DHT22;37815;52.692;6.226;2023-05-13T21:34:25;19.20;95.50
51739;DHT22;37815;52.692;6.226;2023-05-13T21:39:26;19.20;95.50
51739;DHT22;37815;52.692;6.226;2023-05-13T21:44:26;19.10;95.40
51739;DHT22;37815;52.692;6.226;2023-05-13T21:49:36;19.10;95.40
51739;DHT22;37815;52.692;6.226;2023-05-13T21:54:36;19.10;95.40
51739;DHT22;37815;52.692;6.226;2023-05-13T21:59:37;19.00;95.40
51739;DHT22;37815;52.692;6.226;2023-05-13T22:04:37;19.00;95.40
51739;DHT22;37815;52.692;6.226;2023-05-13T22:09:38;18.90;95.40
51739;DHT22;37815;52.692;6.226;2023-05-13T22:14:39;18.90;95.40
51739;DHT22;37815;52.692;6.226;2023-05-13T22:19:39;18.80;95.50
51739;DHT22;37815;52.692;6.226;2023-05-13T22:24:40;18.80;95.40
51739;DHT22;37815;52.692;6.226;2023-05-13T22:29:40;18.80;95.50
51739;DHT22;37815;52.692;6.226;2023-05-13T22:34:41;18.70;95.50
51739;DHT22;37815;52.692;6.226;2023-05-13T22:39:41;18.70;95.50
51739;DHT22;37815;52.692;6.226;2023-05-13T22:44:42;18.60;95.50
51739;DHT22;37815;52.692;6.226;2023-05-13T22:49:43;18.60;95.50
51739;DHT22;37815;52.692;6.226;2023-05-13T22:54:43;18.50;95.50
51739;DHT22;37815;52.692;6.226;2023-05-13T22:59:44;18.50;95.50
51739;DHT22;37815;52.692;6.226;2023-05-13T23:04:44;18.40;95.50
51739;DHT22;37815;52.692;6.226;2023-05-13T23:09:45;18.50;95.60
51739;DHT22;37815;52.692;6.226;2023-05-13T23:14:46;18.40;95.60
51739;DHT22;37815;52.692;6.226;2023-05-13T23:19:46;18.30;95.50
51739;DHT22;37815;52.692;6.226;2023-05-13T23:24:47;18.30;95.60
51739;DHT22;37815;52.692;6.226;2023-05-13T23:29:47;18.20;95.50
51739;DHT22;37815;52.692;6.226;2023-05-13T23:34:48;18.20;95.50
51739;DHT22;37815;52.692;6.226;2023-05-13T23:39:48;18.20;95.50
51739;DHT22;37815;52.692;6.226;2023-05-13T23:44:49;18.20;95.50
51739;DHT22;37815;52.692;6.226;2023-05-13T23:49:50;18.10;95.50
51739;DHT22;37815;52.692;6.226;2023-05-13T23:54:50;18.10;95.50
51739;DHT22;37815;52.692;6.226;2023-05-13T23:59:51;18.10;95.50
